WetterOnline ( https://www.wetteronline.de )

Wetter aktuell Waren

Aktuelles Wetter: Waren (71m)

6-stündlich | Neueste Meldungen
Ortszeit Temperatur Wetter
Sa, 28.11. 13:00 4.6° C bewölkt
Sa, 28.11. 7:00 0.1° C bedeckt
Sa, 28.11. 1:00 0.6° C Nebel
Fr, 27.11. 19:00 2.0° C Nebel
Fr, 27.11. 13:00 3.8° C Nebel
Fr, 27.11. 7:00 2.4° C Nebel
Fr, 27.11. 1:00 4.8° C Nebel
Do, 26.11. 19:00 6.1° C bedeckt
Ortszeit Temperatur Wetter
Sa, 28.11. 15:30 3.9° C wolkig
Sa, 28.11. 15:20 3.9° C wolkig
Sa, 28.11. 15:10 4.2° C leicht bewölkt
Sa, 28.11. 15:00 4.4° C wolkenlos
Sa, 28.11. 14:50 4.4° C wolkenlos
Sa, 28.11. 14:40 4.5° C fast wolkenlos
Sa, 28.11. 14:30 4.4° C wolkig
Sa, 28.11. 14:00 4.8° C bewölkt
Sa, 28.11. 13:30 4.8° C bedeckt
Sa, 28.11. 13:00 4.6° C bewölkt
Sa, 28.11. 12:30 4.3° C bedeckt
Ortszeit Relative Feuchte Sichtweite
Sa, 28.11. 13:00 80% 60 km
Sa, 28.11. 7:00 96% 35 km
Sa, 28.11. 1:00 99% 100 m
Fr, 27.11. 19:00 99% 100 m
Fr, 27.11. 13:00 100% 100 m
Fr, 27.11. 7:00 100% 100 m
Fr, 27.11. 1:00 99% 0.3 km
Do, 26.11. 19:00 97% 6 km
Ortszeit Relative Feuchte Sichtweite
Sa, 28.11. 15:30 84% 50 km
Sa, 28.11. 15:20 84% -
Sa, 28.11. 15:10 80% -
Sa, 28.11. 15:00 77% 60 km
Sa, 28.11. 14:50 77% -
Sa, 28.11. 14:40 79% -
Sa, 28.11. 14:30 79% >70 km
Sa, 28.11. 14:00 76% >70 km
Sa, 28.11. 13:30 77% >70 km
Sa, 28.11. 13:00 80% 60 km
Sa, 28.11. 12:30 83% 55 km
Ortszeit Niederschlagsmenge Niederschlagsart
Sa, 28.11. 13:00 0.0 l/m2 in 6 Std. -
Sa, 28.11. 7:00 0.0 l/m2 in 12 Std. -
Sa, 28.11. 1:00 0.0 l/m2 in 6 Std. -
Fr, 27.11. 19:00 0.1 l/m2 in 12 Std. -
Fr, 27.11. 13:00 0.1 l/m2 in 6 Std. -
Fr, 27.11. 7:00 0.0 l/m2 in 12 Std. -
Fr, 27.11. 1:00 0.0 l/m2 in 6 Std. -
Do, 26.11. 19:00 0.1 l/m2 in 12 Std. -
Ortszeit Niederschlagsmenge Niederschlagsart
Sa, 28.11. 15:30 0.0 l/m2 in 1 Std. -
Sa, 28.11. 15:20 keine Meldung -
Sa, 28.11. 15:10 keine Meldung -
Sa, 28.11. 15:00 0.0 l/m2 in 1 Std. -
Sa, 28.11. 14:50 keine Meldung -
Sa, 28.11. 14:40 keine Meldung -
Sa, 28.11. 14:30 0.0 l/m2 in 1 Std. -
Sa, 28.11. 14:00 0.0 l/m2 in 1 Std. -
Sa, 28.11. 13:30 0.0 l/m2 in 1 Std. -
Sa, 28.11. 13:00 0.0 l/m2 in 1 Std. -
Sa, 28.11. 12:30 0.0 l/m2 in 1 Std. -
Ortszeit Stärke Spitze Richtung
km/h Bft. km/h Grad Sektor
Sa, 28.11. 13:00 4 1 11 20° N
Sa, 28.11. 7:00 4 1 7 10° N
Sa, 28.11. 1:00 4 1 14 260° W
Fr, 27.11. 19:00 6 1 9 180° S
Fr, 27.11. 13:00 4 1 11 150° SO
Fr, 27.11. 7:00 4 1 14 240° SW
Fr, 27.11. 1:00 6 1 15 270° W
Do, 26.11. 19:00 7 2 25 260° W
Ortszeit Stärke Spitze Richtung
km/h Bft. km/h Grad Sektor
Sa, 28.11. 15:30 4 1 7 350° N
Sa, 28.11. 15:20 4 1 - 350° N
Sa, 28.11. 15:10 4 1 - 360° N
Sa, 28.11. 15:00 4 1 11 350° N
Sa, 28.11. 14:50 4 1 - 350° N
Sa, 28.11. 14:40 4 1 - 360° N
Sa, 28.11. 14:30 4 1 11 20° N
Sa, 28.11. 14:00 6 1 9 40° NO
Sa, 28.11. 13:30 4 1 11 60° NO
Sa, 28.11. 13:00 4 1 7 20° N
Sa, 28.11. 12:30 4 1 7 90° O
Ortszeit Untergrenze Bedeckung Gattung
total tief tief mittel hoch
Sa, 28.11. 13:00 750 m 7/8 7/8 - - -
Sa, 28.11. 7:00 420 m 8/8 8/8 - - -
Sa, 28.11. 1:00 <30 m 8/8 0/8 - - -
Fr, 27.11. 19:00 <30 m 8/8 0/8 - - -
Fr, 27.11. 13:00 <30 m 8/8 0/8 - - -
Fr, 27.11. 7:00 <30 m 8/8 0/8 - - -
Fr, 27.11. 1:00 30 m 8/8 8/8 - - -
Do, 26.11. 19:00 4500 m 8/8 8/8 - - -
Ortszeit Bedeckungsgrad in Achtel und Wolkenuntergrenze
Sa, 28.11. 15:30 5(810m)
Sa, 28.11. 15:20 5(810m)
Sa, 28.11. 15:10 2(870m)
Sa, 28.11. 15:00 keine Wolken
Sa, 28.11. 14:50 keine Wolken
Sa, 28.11. 14:40 1(780m)
Sa, 28.11. 14:30 6(780m)
Sa, 28.11. 14:00 7(720m)
Sa, 28.11. 13:30 8(720m)
Sa, 28.11. 13:00 7(750m)
Sa, 28.11. 12:30 8(630m)
Ortszeit Luftdruck NN (hPa) Tendenz (hPa in 3 Std.)
Sa, 28.11. 13:00 1026 - 0,1
Sa, 28.11. 7:00 1025 + 0,7
Sa, 28.11. 1:00 1024 0,0
Fr, 27.11. 19:00 1024 + 0,8
Fr, 27.11. 13:00 1023 + 0,1
Fr, 27.11. 7:00 1021 + 0,5
Fr, 27.11. 1:00 1021 + 0,4
Do, 26.11. 19:00 1020 + 1,2
Ortszeit Luftdruck NN (hPa) Tendenz (hPa in 3 Std.)
Sa, 28.11. 15:30 1026 + 0,1
Sa, 28.11. 15:20 1026 keine Meldung
Sa, 28.11. 15:10 1026 keine Meldung
Sa, 28.11. 15:00 1026 - 0,2
Sa, 28.11. 14:50 1026 keine Meldung
Sa, 28.11. 14:40 1026 keine Meldung
Sa, 28.11. 14:30 1026 - 0,3
Sa, 28.11. 14:00 1026 - 0,3
Sa, 28.11. 13:30 1026 - 0,3
Sa, 28.11. 13:00 1026 - 0,1
Sa, 28.11. 12:30 1026 + 0,2
Ortszeit Schneehöhe (cm)
Sa, 28.11. 13:00 0
Sa, 28.11. 7:00 0
Sa, 28.11. 1:00 0
Fr, 27.11. 19:00 0
Fr, 27.11. 13:00 0
Fr, 27.11. 7:00 0
Fr, 27.11. 1:00 0
Do, 26.11. 19:00 0
Ortszeit Schneehöhe (cm)
Sa, 28.11. 15:30 0
Sa, 28.11. 15:20 0
Sa, 28.11. 15:10 0
Sa, 28.11. 15:00 0
Sa, 28.11. 14:50 0
Sa, 28.11. 14:40 0
Sa, 28.11. 14:30 0
Sa, 28.11. 14:00 0
Sa, 28.11. 13:30 0
Sa, 28.11. 13:00 0
Sa, 28.11. 12:30 0
Link zu dieser Seite / Seite empfehlen

Das Wetter in ...